createdAt,value
2023-02-17T00:01:21.215Z,101379.41
2023-02-17T00:03:49.705Z,101377.84
2023-02-17T00:06:19.767Z,101370.72
2023-02-17T00:08:49.580Z,101363.78
2023-02-17T00:11:18.193Z,101365.13
2023-02-17T00:13:46.757Z,101364.63
2023-02-17T00:16:18.497Z,101365.78
2023-02-17T00:18:47.139Z,101363.34
2023-02-17T00:21:17.149Z,101360.19
2023-02-17T00:23:46.160Z,101362.63
2023-02-17T00:26:16.362Z,101363.75
2023-02-17T00:28:45.007Z,101363.84
2023-02-17T00:31:16.155Z,101363.03
2023-02-17T00:33:44.610Z,101361.47
2023-02-17T00:36:14.758Z,101358.84
2023-02-17T00:38:43.030Z,101366.78
2023-02-17T00:41:11.014Z,101377.97
2023-02-17T00:43:40.792Z,101366.91
2023-02-17T00:46:09.093Z,101364.41
2023-02-17T00:48:37.579Z,101368.56
2023-02-17T00:51:06.259Z,101373.31
2023-02-17T00:53:36.496Z,101370.03
2023-02-17T00:56:05.678Z,101371.34
2023-02-17T00:58:34.050Z,101367.81
2023-02-17T01:01:03.828Z,101364.59
2023-02-17T01:03:32.573Z,101351.94
2023-02-17T01:06:00.717Z,101365.50
2023-02-17T01:08:28.996Z,101365.13
2023-02-17T01:10:58.157Z,101361.34
2023-02-17T01:13:26.451Z,101371.25
2023-02-17T01:15:55.217Z,101373.66
2023-02-17T01:18:25.319Z,101364.75
2023-02-17T01:20:53.575Z,101368.00
2023-02-17T01:23:21.902Z,101357.44
2023-02-17T01:25:50.637Z,101352.09
2023-02-17T01:28:21.219Z,101348.84
2023-02-17T01:30:50.080Z,101344.47
2023-02-17T01:33:18.468Z,101344.47
2023-02-17T01:35:48.020Z,101341.22
2023-02-17T01:38:16.275Z,101335.00
2023-02-17T01:40:48.143Z,101345.34
2023-02-17T01:43:17.442Z,101339.16
2023-02-17T01:45:48.040Z,101339.16
2023-02-17T01:48:18.118Z,101341.22
2023-02-17T01:50:50.709Z,101343.31
2023-02-17T01:53:21.240Z,101337.97
2023-02-17T01:55:49.660Z,101348.13
2023-02-17T01:58:20.598Z,101346.97
2023-02-17T02:00:49.286Z,101333.28
2023-02-17T02:03:17.656Z,101338.22
2023-02-17T02:05:45.841Z,101331.53
2023-02-17T02:08:16.074Z,101323.59
2023-02-17T02:10:44.122Z,101326.47
2023-02-17T02:13:12.491Z,101324.75
2023-02-17T02:15:44.333Z,101322.84
2023-02-17T02:18:21.530Z,101323.41
2023-02-17T02:21:22.786Z,101332.19
2023-02-17T02:23:59.669Z,101329.53
2023-02-17T02:26:58.057Z,101327.09
2023-02-17T02:29:53.008Z,101328.47
2023-02-17T02:32:41.005Z,101332.72
2023-02-17T02:35:15.064Z,101317.53
2023-02-17T02:37:47.433Z,101312.81
2023-02-17T02:40:16.749Z,101318.75
2023-02-17T02:42:45.673Z,101318.75
2023-02-17T02:45:14.066Z,101307.00
2023-02-17T02:47:48.873Z,101299.81
2023-02-17T02:50:22.733Z,101305.13
2023-02-17T02:53:02.875Z,101294.94
2023-02-17T02:55:42.841Z,101299.03
2023-02-17T02:58:16.500Z,101292.44
2023-02-17T03:00:53.933Z,101279.50
2023-02-17T03:03:30.461Z,101285.53
2023-02-17T03:06:05.179Z,101280.78
2023-02-17T03:08:37.220Z,101281.59
2023-02-17T03:11:05.780Z,101285.25
2023-02-17T03:13:42.861Z,101267.75
2023-02-17T03:16:14.855Z,101272.00
2023-02-17T03:18:44.271Z,101277.28
2023-02-17T03:21:16.130Z,101274.50
2023-02-17T03:23:44.471Z,101273.50
2023-02-17T03:26:12.777Z,101274.38
2023-02-17T03:28:40.884Z,101278.22
2023-02-17T03:31:09.216Z,101262.91
2023-02-17T03:33:37.328Z,101271.03
2023-02-17T03:36:08.081Z,101267.66
2023-02-17T03:38:36.260Z,101269.84
2023-02-17T03:41:04.822Z,101262.50
2023-02-17T03:43:32.861Z,101277.63
2023-02-17T03:46:01.188Z,101267.00
2023-02-17T03:48:29.281Z,101264.16
2023-02-17T03:50:57.606Z,101268.34
2023-02-17T03:53:26.956Z,101262.44
2023-02-17T03:55:55.329Z,101261.06
2023-02-17T03:58:23.729Z,101272.44
2023-02-17T04:00:51.941Z,101275.09
2023-02-17T04:03:20.010Z,101273.50
2023-02-17T04:05:48.265Z,101272.44
2023-02-17T04:08:16.316Z,101277.88
2023-02-17T04:10:46.040Z,101290.81
2023-02-17T04:13:14.006Z,101277.25
2023-02-17T04:15:42.325Z,101286.03
2023-02-17T04:18:10.382Z,101281.88
2023-02-17T04:20:38.633Z,101283.25
2023-02-17T04:23:06.674Z,101276.13
2023-02-17T04:25:35.335Z,101293.41
2023-02-17T04:28:05.497Z,101285.19
2023-02-17T04:30:34.069Z,101287.31
2023-02-17T04:33:02.655Z,101288.63
2023-02-17T04:35:30.976Z,101288.63
2023-02-17T04:37:59.022Z,101301.03
2023-02-17T04:40:27.387Z,101300.38
2023-02-17T04:42:55.369Z,101297.72
2023-02-17T04:45:25.809Z,101298.31
2023-02-17T04:47:53.784Z,101299.44
2023-02-17T04:50:22.310Z,101296.91
2023-02-17T04:52:50.347Z,101289.97
2023-02-17T04:55:18.896Z,101299.09
2023-02-17T04:57:46.893Z,101303.81
2023-02-17T05:00:15.734Z,101301.53
2023-02-17T05:02:45.106Z,101302.22
2023-02-17T05:05:15.173Z,101299.78
2023-02-17T05:07:43.412Z,101295.56
2023-02-17T05:10:12.012Z,101291.03
2023-02-17T05:12:40.466Z,101299.28
2023-02-17T05:15:09.517Z,101302.41
2023-02-17T05:17:37.947Z,101301.91
2023-02-17T05:20:09.582Z,101298.91
2023-02-17T05:22:37.695Z,101306.28
2023-02-17T05:25:06.675Z,101301.16
2023-02-17T05:27:34.996Z,101309.41
2023-02-17T05:30:03.361Z,101311.47
2023-02-17T05:32:31.499Z,101311.47
2023-02-17T05:34:59.956Z,101313.47
2023-02-17T05:37:29.348Z,101320.47
2023-02-17T05:39:57.568Z,101321.50
2023-02-17T05:42:28.689Z,101319.19
2023-02-17T05:44:57.078Z,101312.75
2023-02-17T05:47:27.551Z,101310.00
2023-02-17T05:49:55.944Z,101316.31
2023-02-17T05:52:24.006Z,101314.94
2023-02-17T05:54:53.609Z,101313.81
2023-02-17T05:57:21.550Z,101313.09
2023-02-17T05:59:49.845Z,101305.16
2023-02-17T06:02:17.798Z,101307.81
2023-02-17T06:04:46.396Z,101312.97
2023-02-17T06:07:15.584Z,101313.09
2023-02-17T06:09:45.342Z,101328.72
2023-02-17T06:12:16.465Z,101328.28
2023-02-17T06:14:44.693Z,101332.97
2023-02-17T06:17:12.697Z,101335.25
2023-02-17T06:19:40.940Z,101329.19
2023-02-17T06:22:09.006Z,101326.66
2023-02-17T06:24:37.694Z,101336.50
2023-02-17T06:27:05.802Z,101333.94
2023-02-17T06:29:35.481Z,101340.59
2023-02-17T06:32:03.680Z,101339.97
2023-02-17T06:34:31.944Z,101337.53
2023-02-17T06:37:00.081Z,101341.94
2023-02-17T06:39:28.335Z,101329.41
2023-02-17T06:41:56.323Z,101328.03
2023-02-17T06:44:24.618Z,101329.38
2023-02-17T06:46:54.001Z,101323.72
2023-02-17T06:49:23.055Z,101315.63
2023-02-17T06:51:51.050Z,101326.13
2023-02-17T06:54:19.395Z,101326.50
2023-02-17T06:56:47.742Z,101340.22
2023-02-17T06:59:15.978Z,101335.25
2023-02-17T07:01:44.049Z,101338.59
2023-02-17T07:04:13.628Z,101347.94
2023-02-17T07:06:41.751Z,101344.59
2023-02-17T07:09:11.483Z,101342.03
2023-02-17T07:11:39.500Z,101324.16
2023-02-17T07:14:07.732Z,101340.13
2023-02-17T07:16:35.846Z,101343.72
2023-02-17T07:19:04.150Z,101352.56
2023-02-17T07:21:33.526Z,101355.66
2023-02-17T07:24:01.820Z,101386.94
2023-02-17T07:26:29.893Z,101382.28
2023-02-17T07:28:58.553Z,101392.59
2023-02-17T07:31:26.598Z,101390.09
2023-02-17T07:33:54.975Z,101384.97
2023-02-17T07:36:23.036Z,101390.41
2023-02-17T07:38:52.889Z,101378.47
2023-02-17T07:41:24.595Z,101383.03
2023-02-17T07:43:57.468Z,101389.66
2023-02-17T07:46:25.862Z,101393.47
2023-02-17T07:48:54.830Z,101395.19
2023-02-17T07:51:23.952Z,101403.13
2023-02-17T07:53:54.955Z,101405.56
2023-02-17T07:56:23.563Z,101395.31
2023-02-17T07:58:52.054Z,101390.25
2023-02-17T08:01:22.274Z,101385.66
2023-02-17T08:03:51.226Z,101380.97
2023-02-17T08:06:20.741Z,101378.75
2023-02-17T08:09:07.316Z,101377.22
2023-02-17T08:11:54.887Z,101374.84
2023-02-17T08:14:24.828Z,101375.22
2023-02-17T08:16:53.486Z,101378.03
2023-02-17T08:19:22.153Z,101373.00
2023-02-17T08:21:50.425Z,101379.66
2023-02-17T08:24:19.560Z,101373.66
2023-02-17T08:26:48.969Z,101388.75
2023-02-17T08:29:17.705Z,101396.94
2023-02-17T08:31:45.822Z,101401.41
2023-02-17T08:34:15.915Z,101404.56
2023-02-17T08:36:43.952Z,101391.06
2023-02-17T08:39:14.094Z,101398.88
2023-02-17T08:41:42.725Z,101381.03
2023-02-17T08:44:14.360Z,101389.38
2023-02-17T08:46:43.459Z,101389.28
2023-02-17T08:49:12.233Z,101379.88
2023-02-17T08:51:40.388Z,101385.53
2023-02-17T08:54:12.333Z,101392.09
2023-02-17T08:56:40.977Z,101393.06
2023-02-17T08:59:10.493Z,101387.25
2023-02-17T09:01:41.144Z,101392.34
2023-02-17T09:04:10.843Z,101388.22
2023-02-17T09:06:41.207Z,101385.16
2023-02-17T09:09:11.275Z,101368.97
2023-02-17T09:11:39.490Z,101370.63
2023-02-17T09:14:17.060Z,101371.06
2023-02-17T09:16:53.674Z,101381.69
2023-02-17T09:19:24.199Z,101385.16
2023-02-17T09:21:53.166Z,101391.16
2023-02-17T09:24:21.473Z,101379.16
2023-02-17T09:26:49.525Z,101387.38
2023-02-17T09:29:17.834Z,101390.00
2023-02-17T09:31:46.290Z,101378.53
2023-02-17T09:34:16.280Z,101392.16
2023-02-17T09:36:44.416Z,101393.34
2023-02-17T09:39:14.701Z,101393.72
2023-02-17T09:41:47.100Z,101374.56
2023-02-17T09:44:21.922Z,101383.09
2023-02-17T09:47:02.034Z,101379.06
2023-02-17T09:49:37.510Z,101372.03
2023-02-17T09:52:10.274Z,101389.78
2023-02-17T09:54:44.918Z,101382.38
2023-02-17T09:57:19.634Z,101383.56
2023-02-17T09:59:50.755Z,101385.16
2023-02-17T10:02:24.993Z,101385.16
2023-02-17T10:04:55.338Z,101377.34
2023-02-17T10:07:27.715Z,101391.09
2023-02-17T10:09:59.440Z,101376.47
2023-02-17T10:12:31.451Z,101387.06
2023-02-17T10:15:05.696Z,101380.13
2023-02-17T10:17:37.706Z,101377.63
2023-02-17T10:20:10.944Z,101380.75
2023-02-17T10:22:39.519Z,101393.16
2023-02-17T10:25:15.987Z,101399.72
2023-02-17T10:27:47.571Z,101409.25
2023-02-17T10:30:24.614Z,101398.06
2023-02-17T10:33:03.454Z,101402.16
2023-02-17T10:35:45.713Z,101409.97
2023-02-17T10:38:17.847Z,101421.56
2023-02-17T10:40:48.385Z,101415.56
2023-02-17T10:43:23.092Z,101417.03
2023-02-17T10:45:53.315Z,101414.38
2023-02-17T10:48:23.737Z,101419.81
2023-02-17T10:50:55.025Z,101414.72
2023-02-17T10:53:27.140Z,101413.91
2023-02-17T10:56:01.168Z,101414.72
2023-02-17T10:58:33.544Z,101420.84
2023-02-17T11:01:02.579Z,101414.19
2023-02-17T11:03:31.924Z,101404.53
2023-02-17T11:06:03.267Z,101399.78
2023-02-17T11:08:34.963Z,101402.88
2023-02-17T11:11:05.621Z,101413.38
2023-02-17T11:13:37.245Z,101406.66
2023-02-17T11:16:06.674Z,101402.59
2023-02-17T11:18:36.871Z,101401.59
2023-02-17T11:21:09.110Z,101410.56
2023-02-17T11:23:47.421Z,101390.13
2023-02-17T11:26:19.665Z,101388.84
2023-02-17T11:28:47.705Z,101386.78
2023-02-17T11:31:25.204Z,101378.66
2023-02-17T11:33:55.271Z,101383.09
2023-02-17T11:36:28.129Z,101382.06
2023-02-17T11:38:57.109Z,101381.94
2023-02-17T11:41:25.473Z,101383.44
2023-02-17T11:43:55.350Z,101382.63
2023-02-17T11:46:29.380Z,101385.72
2023-02-17T11:49:03.965Z,101371.78
2023-02-17T11:51:40.726Z,101378.78
2023-02-17T11:54:18.855Z,101370.81
2023-02-17T11:56:52.470Z,101370.09
2023-02-17T11:59:35.801Z,101365.38
2023-02-17T12:02:18.450Z,101371.41
2023-02-17T12:04:54.117Z,101373.59
2023-02-17T12:07:42.658Z,101374.88
2023-02-17T12:10:17.801Z,101370.34
2023-02-17T12:12:59.297Z,101365.88
2023-02-17T12:15:45.312Z,101360.28
2023-02-17T12:18:25.066Z,101361.03
2023-02-17T12:20:59.140Z,101371.06
2023-02-17T12:23:50.234Z,101362.16
2023-02-17T12:26:26.915Z,101362.69
2023-02-17T12:29:05.346Z,101371.38
2023-02-17T12:31:44.244Z,101363.00
2023-02-17T12:34:18.869Z,101375.31
2023-02-17T12:36:47.445Z,101383.84
2023-02-17T12:39:21.597Z,101380.41
2023-02-17T12:41:52.806Z,101370.53
2023-02-17T12:44:23.954Z,101369.38
2023-02-17T12:46:54.704Z,101387.00
2023-02-17T12:49:26.275Z,101375.25
2023-02-17T12:51:58.573Z,101358.47
2023-02-17T12:54:33.833Z,101376.38
2023-02-17T12:57:18.634Z,101362.66
2023-02-17T12:59:50.299Z,101359.91
2023-02-17T13:02:19.980Z,101363.97
2023-02-17T13:04:50.773Z,101371.38
2023-02-17T13:07:28.120Z,101369.88
2023-02-17T13:09:57.991Z,101360.72
2023-02-17T13:12:39.046Z,101354.44
2023-02-17T13:15:27.112Z,101345.09
2023-02-17T13:17:56.723Z,101349.91
2023-02-17T13:20:28.364Z,101343.38
2023-02-17T13:23:07.867Z,101345.56
2023-02-17T13:25:38.141Z,101335.31
2023-02-17T13:28:35.171Z,101330.88
2023-02-17T13:31:17.747Z,101329.63
2023-02-17T13:33:49.109Z,101326.31
2023-02-17T13:36:21.564Z,101323.97
2023-02-17T13:39:00.268Z,101315.00
2023-02-17T13:41:34.407Z,101317.78
2023-02-17T13:44:21.650Z,101323.75
2023-02-17T13:46:50.066Z,101322.66
2023-02-17T13:49:22.571Z,101333.72
2023-02-17T13:51:50.901Z,101332.41
2023-02-17T13:54:21.970Z,101332.25
2023-02-17T13:56:56.153Z,101335.72
2023-02-17T13:59:27.133Z,101334.22
2023-02-17T14:01:55.873Z,101337.94
2023-02-17T14:04:26.740Z,101326.63
2023-02-17T14:06:56.241Z,101316.53
2023-02-17T14:09:26.789Z,101324.53
2023-02-17T14:11:57.581Z,101329.72
2023-02-17T14:14:27.483Z,101327.28
2023-02-17T14:17:04.069Z,101342.31
2023-02-17T14:19:43.236Z,101333.28
2023-02-17T14:22:24.692Z,101336.44
2023-02-17T14:25:00.878Z,101346.03
2023-02-17T14:27:41.838Z,101335.72
2023-02-17T14:30:14.903Z,101331.94
2023-02-17T14:32:43.852Z,101341.63
2023-02-17T14:35:23.996Z,101337.00
2023-02-17T14:37:52.293Z,101314.75
2023-02-17T14:40:23.213Z,101315.72
2023-02-17T14:42:52.995Z,101293.78
2023-02-17T14:45:21.265Z,101310.72
2023-02-17T14:47:49.732Z,101301.19
2023-02-17T14:50:18.046Z,101292.81
2023-02-17T14:52:47.488Z,101288.94
2023-02-17T14:55:21.094Z,101288.47
2023-02-17T14:57:49.341Z,101306.34
2023-02-17T15:00:19.986Z,101309.41
2023-02-17T15:02:48.430Z,101276.66
2023-02-17T15:05:16.601Z,101288.03
2023-02-17T15:07:45.019Z,101300.00
2023-02-17T15:10:20.135Z,101292.28
2023-02-17T15:12:48.428Z,101278.41
2023-02-17T15:15:18.840Z,101291.78
2023-02-17T15:17:47.313Z,101273.75
2023-02-17T15:20:17.364Z,101288.63
2023-02-17T15:22:45.674Z,101272.50
2023-02-17T15:25:16.010Z,101302.03
2023-02-17T15:27:44.847Z,101297.78
2023-02-17T15:30:14.188Z,101302.72
2023-02-17T15:32:44.470Z,101294.66
2023-02-17T15:35:20.082Z,101286.66
2023-02-17T15:37:48.741Z,101286.22
2023-02-17T15:40:18.497Z,101303.47
2023-02-17T15:42:48.259Z,101299.22
2023-02-17T15:45:18.831Z,101298.44
2023-02-17T15:47:49.372Z,101321.59
2023-02-17T15:50:21.290Z,101324.72
2023-02-17T15:52:50.687Z,101321.59
2023-02-17T15:55:19.717Z,101338.34
2023-02-17T15:57:49.749Z,101341.44
2023-02-17T16:00:23.322Z,101345.88
2023-02-17T16:02:53.787Z,101335.94
2023-02-17T16:05:27.189Z,101338.59
2023-02-17T16:07:56.017Z,101337.22
2023-02-17T16:10:27.064Z,101330.59
2023-02-17T16:12:57.149Z,101344.25
2023-02-17T16:15:26.711Z,101323.38
2023-02-17T16:17:57.598Z,101314.94
2023-02-17T16:20:27.057Z,101313.69
2023-02-17T16:22:55.386Z,101334.09
2023-02-17T16:25:23.691Z,101328.09
2023-02-17T16:27:53.114Z,101320.97
2023-02-17T16:30:23.363Z,101309.63
2023-02-17T16:32:53.665Z,101324.53
2023-02-17T16:35:25.887Z,101315.19
2023-02-17T16:37:56.285Z,101317.81
2023-02-17T16:40:25.689Z,101319.66
2023-02-17T16:42:54.135Z,101316.34
2023-02-17T16:45:24.604Z,101318.94
2023-02-17T16:47:56.039Z,101332.28
2023-02-17T16:50:27.858Z,101326.50
2023-02-17T16:52:58.794Z,101336.91
2023-02-17T16:55:29.109Z,101359.97
2023-02-17T16:57:58.655Z,101355.59
2023-02-17T17:00:29.636Z,101355.13
2023-02-17T17:02:58.705Z,101346.34
2023-02-17T17:05:29.527Z,101353.63
2023-02-17T17:07:58.041Z,101359.63
2023-02-17T17:10:29.472Z,101365.19
2023-02-17T17:12:58.457Z,101390.03
2023-02-17T17:15:26.502Z,101394.88
2023-02-17T17:17:57.948Z,101391.84
2023-02-17T17:20:31.943Z,101382.72
2023-02-17T17:23:01.125Z,101390.00
2023-02-17T17:25:29.731Z,101386.19
2023-02-17T17:27:58.761Z,101400.41
2023-02-17T17:30:29.435Z,101405.97
2023-02-17T17:32:57.709Z,101402.25
2023-02-17T17:35:26.917Z,101401.44
2023-02-17T17:37:57.421Z,101406.75
2023-02-17T17:40:27.753Z,101396.47
2023-02-17T17:42:57.177Z,101410.31
2023-02-17T17:45:25.739Z,101422.00
2023-02-17T17:47:54.428Z,101416.59
2023-02-17T17:50:24.789Z,101405.25
2023-02-17T17:52:53.239Z,101416.81
2023-02-17T17:55:24.212Z,101416.47
2023-02-17T17:57:53.608Z,101419.72
2023-02-17T18:00:23.910Z,101418.06
2023-02-17T18:02:52.230Z,101418.44
2023-02-17T18:05:20.352Z,101406.53
2023-02-17T18:07:49.933Z,101416.81
2023-02-17T18:10:18.196Z,101426.50
2023-02-17T18:12:48.470Z,101424.44
2023-02-17T18:15:17.441Z,101425.94
2023-02-17T18:17:46.455Z,101383.66
2023-02-17T18:20:14.669Z,101405.50
2023-02-17T18:22:42.996Z,101394.88
2023-02-17T18:25:11.384Z,101401.59
2023-02-17T18:27:41.543Z,101423.97
2023-02-17T18:30:13.376Z,101418.75
2023-02-17T18:32:43.324Z,101417.75
2023-02-17T18:35:12.810Z,101420.06
2023-02-17T18:37:41.557Z,101423.72
2023-02-17T18:40:12.640Z,101417.94
2023-02-17T18:42:41.264Z,101412.22
2023-02-17T18:45:11.352Z,101417.84
2023-02-17T18:47:39.672Z,101427.44
2023-02-17T18:50:09.466Z,101419.00
2023-02-17T18:52:38.015Z,101417.97
2023-02-17T18:55:06.758Z,101423.28
2023-02-17T18:57:35.654Z,101428.34
2023-02-17T19:00:04.554Z,101425.56
2023-02-17T19:02:36.590Z,101432.75
2023-02-17T19:05:05.171Z,101438.25
2023-02-17T19:07:34.032Z,101454.09
2023-02-17T19:10:02.165Z,101441.75
2023-02-17T19:12:30.402Z,101466.13
2023-02-17T19:14:58.670Z,101433.88
2023-02-17T19:17:27.010Z,101425.44
2023-02-17T19:19:56.510Z,101434.56
2023-02-17T19:22:24.765Z,101433.66
2023-02-17T19:24:54.505Z,101439.91
2023-02-17T19:27:22.944Z,101458.75
2023-02-17T19:29:50.935Z,101439.09
2023-02-17T19:32:19.471Z,101457.69
2023-02-17T19:34:47.631Z,101448.00
2023-02-17T19:37:17.312Z,101451.13
2023-02-17T19:39:45.493Z,101457.47
2023-02-17T19:42:13.933Z,101452.63
2023-02-17T19:44:42.025Z,101455.75
2023-02-17T19:47:10.293Z,101451.13
2023-02-17T19:49:38.375Z,101458.50
2023-02-17T19:52:07.404Z,101452.16
2023-02-17T19:54:37.237Z,101442.69
2023-02-17T19:57:05.678Z,101454.00
2023-02-17T19:59:34.402Z,101457.81
2023-02-17T20:02:02.737Z,101463.72
2023-02-17T20:04:30.886Z,101465.31
2023-02-17T20:06:59.500Z,101465.56
2023-02-17T20:09:28.143Z,101465.78
2023-02-17T20:11:57.791Z,101465.56
2023-02-17T20:14:25.811Z,101478.59
2023-02-17T20:16:55.534Z,101475.94
2023-02-17T20:19:23.759Z,101474.56
2023-02-17T20:21:52.080Z,101483.47
2023-02-17T20:24:20.064Z,101484.38
2023-02-17T20:26:48.912Z,101483.69
2023-02-17T20:29:18.570Z,101482.19
2023-02-17T20:31:46.965Z,101469.38
2023-02-17T20:34:27.365Z,101473.75
2023-02-17T20:36:55.950Z,101472.94
2023-02-17T20:39:25.660Z,101475.63
2023-02-17T20:41:54.634Z,101480.34
2023-02-17T20:44:27.720Z,101475.28
2023-02-17T20:46:57.214Z,101482.44
2023-02-17T20:49:25.526Z,101479.88
2023-02-17T20:51:54.351Z,101480.34
2023-02-17T20:54:27.256Z,101474.56
2023-02-17T20:56:57.514Z,101478.72
2023-02-17T20:59:27.081Z,101475.50
2023-02-17T21:01:55.640Z,101478.59
2023-02-17T21:04:23.904Z,101477.22
2023-02-17T21:06:52.247Z,101481.59
2023-02-17T21:09:20.912Z,101484.25
2023-02-17T21:11:49.252Z,101475.94
2023-02-17T21:14:17.352Z,101480.81
2023-02-17T21:16:47.456Z,101480.00
2023-02-17T21:19:15.658Z,101476.41
2023-02-17T21:21:43.919Z,101473.53
2023-02-17T21:24:12.180Z,101472.16
2023-02-17T21:26:40.579Z,101472.84
2023-02-17T21:29:08.667Z,101480.34
2023-02-17T21:31:37.155Z,101483.91
2023-02-17T21:34:07.100Z,101483.91
2023-02-17T21:36:35.857Z,101483.34
2023-02-17T21:39:04.262Z,101473.63
2023-02-17T21:41:32.841Z,101487.75
2023-02-17T21:44:18.769Z,101483.69
2023-02-17T21:46:47.058Z,101477.47
2023-02-17T21:49:16.386Z,101479.88
2023-02-17T21:51:44.752Z,101475.47
2023-02-17T21:54:12.816Z,101480.00
2023-02-17T21:56:41.137Z,101468.09
2023-02-17T21:59:09.671Z,101474.44
2023-02-17T22:01:38.221Z,101477.69
2023-02-17T22:04:06.693Z,101484.72
2023-02-17T22:06:38.235Z,101475.28
2023-02-17T22:09:07.815Z,101469.03
2023-02-17T22:11:37.447Z,101473.88
2023-02-17T22:14:07.212Z,101475.50
2023-02-17T22:16:36.302Z,101475.03
2023-02-17T22:19:06.032Z,101484.72
2023-02-17T22:21:35.995Z,101489.69
2023-02-17T22:24:04.073Z,101487.97
2023-02-17T22:26:32.795Z,101481.59
2023-02-17T22:29:00.917Z,101487.38
2023-02-17T22:31:30.749Z,101486.81
2023-02-17T22:34:00.455Z,101485.19
2023-02-17T22:36:34.921Z,101486.03
2023-02-17T22:39:07.407Z,101477.81
2023-02-17T22:41:41.288Z,101466.25
2023-02-17T22:44:14.810Z,101473.63
2023-02-17T22:47:08.248Z,101480.91
2023-02-17T22:49:42.177Z,101464.84
2023-02-17T22:52:38.308Z,101475.72
2023-02-17T22:55:12.092Z,101478.84
2023-02-17T22:57:48.053Z,101473.63
2023-02-17T23:00:22.375Z,101496.63
2023-02-17T23:02:56.221Z,101481.25
2023-02-17T23:05:51.438Z,101481.03
2023-02-17T23:08:27.318Z,101473.16
2023-02-17T23:11:04.932Z,101481.13
2023-02-17T23:13:43.868Z,101468.09
2023-02-17T23:16:23.571Z,101461.63
2023-02-17T23:19:01.789Z,101454.34
2023-02-17T23:21:32.807Z,101450.88
2023-02-17T23:24:11.001Z,101466.84
2023-02-17T23:26:45.505Z,101465.88
2023-02-17T23:29:18.214Z,101473.41
2023-02-17T23:32:10.214Z,101461.41
2023-02-17T23:34:47.557Z,101460.22
2023-02-17T23:37:18.295Z,101473.16
2023-02-17T23:39:53.518Z,101474.56
2023-02-17T23:42:30.122Z,101466.59
2023-02-17T23:45:07.216Z,101466.59
2023-02-17T23:47:40.388Z,101473.63
2023-02-17T23:50:15.025Z,101485.44
2023-02-17T23:53:07.450Z,101478.25
2023-02-17T23:55:40.849Z,101469.50
2023-02-17T23:58:12.924Z,101473.16
